createdAt,value
2022-11-09T00:01:25.159Z,24.63
2022-11-09T00:03:57.509Z,23.75
2022-11-09T00:06:25.779Z,24.15
2022-11-09T00:08:55.474Z,25.05
2022-11-09T00:11:24.176Z,23.35
2022-11-09T00:13:52.477Z,23.30
2022-11-09T00:16:22.511Z,23.00
2022-11-09T00:18:51.948Z,23.63
2022-11-09T00:21:21.522Z,22.48
2022-11-09T00:23:50.068Z,22.90
2022-11-09T00:26:20.842Z,24.40
2022-11-09T00:28:49.241Z,22.73
2022-11-09T00:31:19.311Z,23.20
2022-11-09T00:33:50.595Z,23.23
2022-11-09T00:36:20.044Z,22.52
2022-11-09T00:38:51.878Z,22.45
2022-11-09T00:41:22.447Z,20.45
2022-11-09T00:43:51.614Z,22.55
2022-11-09T00:46:20.970Z,22.38
2022-11-09T00:48:49.471Z,23.25
2022-11-09T00:51:18.672Z,23.15
2022-11-09T00:53:48.482Z,23.25
2022-11-09T00:56:16.772Z,20.70
2022-11-09T00:58:46.386Z,22.55
2022-11-09T01:01:17.183Z,23.15
2022-11-09T01:03:46.675Z,23.88
2022-11-09T01:06:17.921Z,22.70
2022-11-09T01:08:47.242Z,21.40
2022-11-09T01:11:16.163Z,23.05
2022-11-09T01:13:46.526Z,23.35
2022-11-09T01:16:16.792Z,23.65
2022-11-09T01:18:45.184Z,20.52
2022-11-09T01:21:15.472Z,22.85
2022-11-09T01:23:44.710Z,20.40
2022-11-09T01:26:15.052Z,21.45
2022-11-09T01:28:45.618Z,22.02
2022-11-09T01:31:15.966Z,20.77
2022-11-09T01:33:44.791Z,21.65
2022-11-09T01:36:14.527Z,24.27
2022-11-09T01:38:43.134Z,22.70
2022-11-09T01:41:14.877Z,21.30
2022-11-09T01:43:43.283Z,22.13
2022-11-09T01:46:20.279Z,22.92
2022-11-09T01:48:53.734Z,21.88
2022-11-09T01:51:27.855Z,21.75
2022-11-09T01:54:00.471Z,21.05
2022-11-09T01:56:30.258Z,20.63
2022-11-09T01:59:03.958Z,19.80
2022-11-09T02:01:34.416Z,22.45
2022-11-09T02:04:06.933Z,21.58
2022-11-09T02:06:36.203Z,21.88
2022-11-09T02:09:09.344Z,22.23
2022-11-09T02:11:38.969Z,21.75
2022-11-09T02:14:08.436Z,24.05
2022-11-09T02:16:38.954Z,22.35
2022-11-09T02:19:07.553Z,22.83
2022-11-09T02:21:37.292Z,21.70
2022-11-09T02:24:06.281Z,23.90
2022-11-09T02:26:40.132Z,23.50
2022-11-09T02:29:11.130Z,23.85
2022-11-09T02:31:45.091Z,22.30
2022-11-09T02:34:16.605Z,21.20
2022-11-09T02:36:46.282Z,23.58
2022-11-09T02:39:17.760Z,24.08
2022-11-09T02:41:54.799Z,23.95
2022-11-09T02:44:25.002Z,23.15
2022-11-09T02:46:53.346Z,24.65
2022-11-09T02:49:21.540Z,24.50
2022-11-09T02:51:51.183Z,25.60
2022-11-09T02:54:19.437Z,23.90
2022-11-09T02:56:47.598Z,24.27
2022-11-09T02:59:15.890Z,24.73
2022-11-09T03:01:44.129Z,23.50
2022-11-09T03:04:12.505Z,23.33
2022-11-09T03:06:40.933Z,22.70
2022-11-09T03:09:12.442Z,25.55
2022-11-09T03:11:41.497Z,23.75
2022-11-09T03:14:10.738Z,22.83
2022-11-09T03:16:40.150Z,24.25
2022-11-09T03:19:08.972Z,23.67
2022-11-09T03:21:37.693Z,22.17
2022-11-09T03:24:06.797Z,24.50
2022-11-09T03:26:36.583Z,23.30
2022-11-09T03:29:04.798Z,23.63
2022-11-09T03:31:32.908Z,23.77
2022-11-09T03:34:01.497Z,24.30
2022-11-09T03:36:29.674Z,23.23
2022-11-09T03:38:58.124Z,24.02
2022-11-09T03:41:26.318Z,25.38
2022-11-09T03:43:56.138Z,25.20
2022-11-09T03:46:24.395Z,24.80
2022-11-09T03:48:52.654Z,25.48
2022-11-09T03:51:21.172Z,25.45
2022-11-09T03:53:49.483Z,25.40
2022-11-09T03:56:18.938Z,24.63
2022-11-09T03:58:47.359Z,27.05
2022-11-09T04:01:17.367Z,27.23
2022-11-09T04:03:45.658Z,26.40
2022-11-09T04:06:16.852Z,28.13
2022-11-09T04:08:50.929Z,27.83
2022-11-09T04:11:20.094Z,27.25
2022-11-09T04:13:48.577Z,27.67
2022-11-09T04:16:18.335Z,27.95
2022-11-09T04:18:47.257Z,27.90
2022-11-09T04:21:17.178Z,25.63
2022-11-09T04:23:49.647Z,27.58
2022-11-09T04:26:18.222Z,27.80
2022-11-09T04:28:46.387Z,28.23
2022-11-09T04:31:15.053Z,28.67
2022-11-09T04:33:46.180Z,28.33
2022-11-09T04:36:14.782Z,28.10
2022-11-09T04:38:42.960Z,28.38
2022-11-09T04:41:15.085Z,25.80
2022-11-09T04:43:43.607Z,27.98
2022-11-09T04:46:12.151Z,27.85
2022-11-09T04:48:41.534Z,26.63
2022-11-09T04:51:13.574Z,28.52
2022-11-09T04:53:41.825Z,27.65
2022-11-09T04:56:10.998Z,28.40
2022-11-09T04:58:39.754Z,27.20
2022-11-09T05:01:11.539Z,26.00
2022-11-09T05:03:40.172Z,26.25
2022-11-09T05:06:24.277Z,28.13
2022-11-09T05:08:52.844Z,26.00
2022-11-09T05:11:21.262Z,28.20
2022-11-09T05:13:51.397Z,27.55
2022-11-09T05:16:20.051Z,26.30
2022-11-09T05:18:49.799Z,25.67
2022-11-09T05:21:19.904Z,25.08
2022-11-09T05:23:59.935Z,28.10
2022-11-09T05:26:30.237Z,27.90
2022-11-09T05:28:59.255Z,28.33
2022-11-09T05:31:28.547Z,32.50
2022-11-09T05:33:57.671Z,25.70
2022-11-09T05:36:28.707Z,25.20
2022-11-09T05:38:57.426Z,24.88
2022-11-09T05:41:25.828Z,25.35
2022-11-09T05:43:54.302Z,26.25
2022-11-09T05:46:22.540Z,25.27
2022-11-09T05:48:51.087Z,25.30
2022-11-09T05:51:19.439Z,25.65
2022-11-09T05:53:49.305Z,22.75
2022-11-09T05:56:17.853Z,25.90
2022-11-09T05:58:46.007Z,25.75
2022-11-09T06:01:15.826Z,25.60
2022-11-09T06:03:44.517Z,26.35
2022-11-09T06:06:15.002Z,24.98
2022-11-09T06:08:43.744Z,26.25
2022-11-09T06:11:23.143Z,26.30
2022-11-09T06:13:53.021Z,25.65
2022-11-09T06:16:21.672Z,26.10
2022-11-09T06:18:50.033Z,26.25
2022-11-09T06:21:18.325Z,24.10
2022-11-09T06:23:46.629Z,24.75
2022-11-09T06:26:16.262Z,23.63
2022-11-09T06:28:44.446Z,24.38
2022-11-09T06:31:15.562Z,23.20
2022-11-09T06:33:44.009Z,23.73
2022-11-09T06:36:12.943Z,23.42
2022-11-09T06:38:41.566Z,24.80
2022-11-09T06:41:11.221Z,25.38
2022-11-09T06:43:40.851Z,23.50
2022-11-09T06:46:11.012Z,25.60
2022-11-09T06:48:39.992Z,25.90
2022-11-09T06:51:08.760Z,26.63
2022-11-09T06:53:38.099Z,26.88
2022-11-09T06:56:07.202Z,26.27
2022-11-09T06:58:36.020Z,26.55
2022-11-09T07:01:10.383Z,26.23
2022-11-09T07:03:39.801Z,26.08
2022-11-09T07:06:09.554Z,26.00
2022-11-09T07:08:38.448Z,25.55
2022-11-09T07:11:07.981Z,26.13
2022-11-09T07:13:36.381Z,25.52
2022-11-09T07:16:04.875Z,26.15
2022-11-09T07:18:34.899Z,25.00
2022-11-09T07:21:08.889Z,25.15
2022-11-09T07:23:41.766Z,24.65
2022-11-09T07:26:10.430Z,24.08
2022-11-09T07:28:38.699Z,24.73
2022-11-09T07:31:07.253Z,25.40
2022-11-09T07:33:36.895Z,25.45
2022-11-09T07:36:08.199Z,17.65
2022-11-09T07:38:36.479Z,23.67
2022-11-09T07:41:05.020Z,24.83
2022-11-09T07:43:33.552Z,23.50
2022-11-09T07:46:05.073Z,24.67
2022-11-09T07:48:33.657Z,22.98
2022-11-09T07:51:03.926Z,22.73
2022-11-09T07:53:32.126Z,23.88
2022-11-09T07:56:01.694Z,22.88
2022-11-09T07:58:30.454Z,21.35
2022-11-09T08:00:59.303Z,22.33
2022-11-09T08:03:27.972Z,21.60
2022-11-09T08:05:57.846Z,21.15
2022-11-09T08:08:27.691Z,21.52
2022-11-09T08:10:57.974Z,21.42
2022-11-09T08:13:26.338Z,20.00
2022-11-09T08:15:54.555Z,20.50
2022-11-09T08:18:24.178Z,22.42
2022-11-09T08:20:52.538Z,23.30
2022-11-09T08:23:22.043Z,24.20
2022-11-09T08:25:52.506Z,24.02
2022-11-09T08:28:21.459Z,24.67
2022-11-09T08:30:57.646Z,22.65
2022-11-09T08:33:26.502Z,22.95
2022-11-09T08:35:55.203Z,22.90
2022-11-09T08:38:23.982Z,22.30
2022-11-09T08:40:58.111Z,22.75
2022-11-09T08:43:26.639Z,23.52
2022-11-09T08:45:54.921Z,22.92
2022-11-09T08:48:23.212Z,23.88
2022-11-09T08:50:54.020Z,24.13
2022-11-09T08:53:23.015Z,23.08
2022-11-09T08:55:51.290Z,24.45
2022-11-09T08:58:21.609Z,22.83
2022-11-09T09:00:50.290Z,23.55
2022-11-09T09:03:18.520Z,23.77
2022-11-09T09:05:49.560Z,22.33
2022-11-09T09:08:22.096Z,22.00
2022-11-09T09:10:50.616Z,24.25
2022-11-09T09:13:22.861Z,20.65
2022-11-09T09:15:51.312Z,20.13
2022-11-09T09:18:19.813Z,21.45
2022-11-09T09:20:48.244Z,20.77
2022-11-09T09:23:17.114Z,20.92
2022-11-09T09:25:45.251Z,20.73
2022-11-09T09:28:13.480Z,20.77
2022-11-09T09:30:43.047Z,21.08
2022-11-09T09:33:11.991Z,19.73
2022-11-09T09:35:40.253Z,19.27
2022-11-09T09:38:08.397Z,19.73
2022-11-09T09:40:43.763Z,18.75
2022-11-09T09:43:19.063Z,19.30
2022-11-09T09:45:54.418Z,17.88
2022-11-09T09:48:32.458Z,19.40
2022-11-09T09:51:04.174Z,19.92
2022-11-09T09:53:36.591Z,19.70
2022-11-09T09:56:10.657Z,19.90
2022-11-09T09:58:44.651Z,20.58
2022-11-09T10:01:20.022Z,18.58
2022-11-09T10:03:48.389Z,19.85
2022-11-09T10:06:33.410Z,17.95
2022-11-09T10:09:08.306Z,18.85
2022-11-09T10:11:45.664Z,21.10
2022-11-09T10:14:40.531Z,19.75
2022-11-09T10:17:17.589Z,18.35
2022-11-09T10:20:04.723Z,21.05
2022-11-09T10:22:42.891Z,18.58
2022-11-09T10:25:32.254Z,20.23
2022-11-09T10:28:13.387Z,19.48
2022-11-09T10:30:41.993Z,20.35
2022-11-09T10:33:21.454Z,21.25
2022-11-09T10:35:56.670Z,18.88
2022-11-09T10:38:30.117Z,21.65
2022-11-09T10:41:05.683Z,21.45
2022-11-09T10:43:33.807Z,20.52
2022-11-09T10:46:05.009Z,21.58
2022-11-09T10:48:37.280Z,22.38
2022-11-09T10:51:06.021Z,21.00
2022-11-09T10:53:35.186Z,21.45
2022-11-09T10:56:20.419Z,20.38
2022-11-09T10:58:51.423Z,20.80
2022-11-09T11:01:21.643Z,21.38
2022-11-09T11:03:53.431Z,21.60
2022-11-09T11:06:31.661Z,20.38
2022-11-09T11:09:16.978Z,21.05
2022-11-09T11:11:45.183Z,21.08
2022-11-09T11:14:21.684Z,21.90
2022-11-09T11:16:53.270Z,23.95
2022-11-09T11:19:34.645Z,22.42
2022-11-09T11:22:23.905Z,21.48
2022-11-09T11:24:57.374Z,23.58
2022-11-09T11:27:30.752Z,21.67
2022-11-09T11:30:06.460Z,22.20
2022-11-09T11:32:34.666Z,21.15
2022-11-09T11:35:06.104Z,23.85
2022-11-09T11:37:48.502Z,22.77
2022-11-09T11:40:22.559Z,20.88
2022-11-09T11:43:16.462Z,23.38
2022-11-09T11:45:50.934Z,21.58
2022-11-09T11:48:46.350Z,22.25
2022-11-09T11:51:20.980Z,21.88
2022-11-09T11:54:01.463Z,22.77
2022-11-09T11:56:35.019Z,21.55
2022-11-09T11:59:29.722Z,21.75
2022-11-09T12:02:20.403Z,22.83
2022-11-09T12:05:08.900Z,22.42
2022-11-09T12:07:47.914Z,20.35
2022-11-09T12:10:31.389Z,19.85
2022-11-09T12:13:10.859Z,20.45
2022-11-09T12:15:53.367Z,19.52
2022-11-09T12:18:35.598Z,20.02
2022-11-09T12:21:16.872Z,19.35
2022-11-09T12:24:03.544Z,19.30
2022-11-09T12:26:59.620Z,18.80
2022-11-09T12:29:43.247Z,19.65
2022-11-09T12:32:19.378Z,19.40
2022-11-09T12:34:58.168Z,22.13
2022-11-09T12:37:30.584Z,31.60
2022-11-09T12:40:14.892Z,19.92
2022-11-09T12:42:47.004Z,19.92
2022-11-09T12:45:24.167Z,26.27
2022-11-09T12:47:55.347Z,25.52
2022-11-09T12:50:26.586Z,25.65
2022-11-09T12:52:55.176Z,64.45
2022-11-09T12:55:33.677Z,21.88
2022-11-09T12:58:01.978Z,21.45
2022-11-09T13:00:51.272Z,20.42
2022-11-09T13:03:26.836Z,20.08
2022-11-09T13:06:19.570Z,20.60
2022-11-09T13:08:59.656Z,20.50
2022-11-09T13:11:37.379Z,20.42
2022-11-09T13:14:30.355Z,19.00
2022-11-09T13:17:00.591Z,19.10
2022-11-09T13:19:51.436Z,20.45
2022-11-09T13:22:57.119Z,19.35
2022-11-09T13:25:51.093Z,18.10
2022-11-09T13:28:52.062Z,19.65
2022-11-09T13:32:03.326Z,18.92
2022-11-09T13:34:43.390Z,18.75
2022-11-09T13:37:51.345Z,17.38
2022-11-09T13:40:42.710Z,18.25
2022-11-09T13:43:18.803Z,18.33
2022-11-09T13:45:48.865Z,18.30
2022-11-09T13:48:34.580Z,18.48
2022-11-09T13:51:05.292Z,16.50
2022-11-09T13:53:53.037Z,18.17
2022-11-09T13:56:29.674Z,17.27
2022-11-09T13:59:03.727Z,17.40
2022-11-09T14:01:38.395Z,16.40
2022-11-09T14:04:25.093Z,16.10
2022-11-09T14:07:02.522Z,15.27
2022-11-09T14:09:39.890Z,14.88
2022-11-09T14:12:33.226Z,14.30
2022-11-09T14:15:21.459Z,17.08
2022-11-09T14:18:14.071Z,16.55
2022-11-09T14:20:51.908Z,15.95
2022-11-09T14:23:24.246Z,16.23
2022-11-09T14:25:52.498Z,17.00
2022-11-09T14:28:23.994Z,16.60
2022-11-09T14:30:52.327Z,16.02
2022-11-09T14:33:24.937Z,17.38
2022-11-09T14:36:00.226Z,16.88
2022-11-09T14:38:32.347Z,17.17
2022-11-09T14:41:01.345Z,17.10
2022-11-09T14:43:36.785Z,17.05
2022-11-09T14:46:06.754Z,17.10
2022-11-09T14:48:36.339Z,16.50
2022-11-09T14:51:08.006Z,16.52
2022-11-09T14:53:39.101Z,18.40
2022-11-09T14:56:11.083Z,18.60
2022-11-09T14:58:42.723Z,45.97
2022-11-09T15:01:21.678Z,19.58
2022-11-09T15:04:09.296Z,26.88
2022-11-09T15:06:47.260Z,25.25
2022-11-09T15:09:22.238Z,21.48
2022-11-09T15:11:51.013Z,19.23
2022-11-09T15:14:26.731Z,20.88
2022-11-09T15:17:01.694Z,24.40
2022-11-09T15:19:32.430Z,20.83
2022-11-09T15:22:03.341Z,23.45
2022-11-09T15:24:46.375Z,23.58
2022-11-09T15:27:32.224Z,20.33
2022-11-09T15:30:00.536Z,21.40
2022-11-09T15:32:34.076Z,21.90
2022-11-09T15:35:02.423Z,20.75
2022-11-09T15:37:47.888Z,22.30
2022-11-09T15:40:18.393Z,21.40
2022-11-09T15:42:47.241Z,22.00
2022-11-09T15:45:19.587Z,21.63
2022-11-09T15:47:52.849Z,24.95
2022-11-09T15:50:23.935Z,23.23
2022-11-09T15:52:54.120Z,25.70
2022-11-09T15:55:24.445Z,25.20
2022-11-09T15:57:53.712Z,23.08
2022-11-09T16:00:23.267Z,23.42
2022-11-09T16:02:57.577Z,26.65
2022-11-09T16:05:27.837Z,26.63
2022-11-09T16:07:58.055Z,30.60
2022-11-09T16:10:27.582Z,30.23
2022-11-09T16:12:56.987Z,30.65
2022-11-09T16:15:26.018Z,31.75
2022-11-09T16:17:54.454Z,30.38
2022-11-09T16:20:22.984Z,30.05
2022-11-09T16:22:51.238Z,30.70
2022-11-09T16:25:21.215Z,33.78
2022-11-09T16:27:51.293Z,30.15
2022-11-09T16:30:20.754Z,29.95
2022-11-09T16:32:48.983Z,32.92
2022-11-09T16:35:27.065Z,32.28
2022-11-09T16:37:56.058Z,30.95
2022-11-09T16:40:27.665Z,46.15
2022-11-09T16:42:56.392Z,31.70
2022-11-09T16:45:29.149Z,31.90
2022-11-09T16:48:03.462Z,30.25
2022-11-09T16:50:32.002Z,33.05
2022-11-09T16:53:00.201Z,31.23
2022-11-09T16:55:29.849Z,31.48
2022-11-09T16:57:58.208Z,33.03
2022-11-09T17:00:42.394Z,32.50
2022-11-09T17:03:15.354Z,32.53
2022-11-09T17:05:47.235Z,31.45
2022-11-09T17:08:15.472Z,33.90
2022-11-09T17:10:47.812Z,35.70
2022-11-09T17:13:16.243Z,39.17
2022-11-09T17:15:46.192Z,33.70
2022-11-09T17:18:18.814Z,34.85
2022-11-09T17:20:49.435Z,39.20
2022-11-09T17:23:19.681Z,36.22
2022-11-09T17:25:57.566Z,35.03
2022-11-09T17:28:25.819Z,38.22
2022-11-09T17:30:54.499Z,39.92
2022-11-09T17:33:25.954Z,34.58
2022-11-09T17:36:00.981Z,36.05
2022-11-09T17:38:30.170Z,34.15
2022-11-09T17:41:05.365Z,33.88
2022-11-09T17:43:37.011Z,31.92
2022-11-09T17:46:06.157Z,33.65
2022-11-09T17:48:34.929Z,32.13
2022-11-09T17:51:03.644Z,34.85
2022-11-09T17:53:32.403Z,32.35
2022-11-09T17:56:01.758Z,31.60
2022-11-09T17:58:39.765Z,36.20
2022-11-09T18:01:09.084Z,31.75
2022-11-09T18:03:39.159Z,33.35
2022-11-09T18:06:12.783Z,35.53
2022-11-09T18:08:41.404Z,34.17
2022-11-09T18:11:12.223Z,34.42
2022-11-09T18:13:43.615Z,33.33
2022-11-09T18:16:17.474Z,31.92
2022-11-09T18:18:46.597Z,31.67
2022-11-09T18:21:20.379Z,32.80
2022-11-09T18:23:54.413Z,32.55
2022-11-09T18:26:25.669Z,31.58
2022-11-09T18:28:57.670Z,32.28
2022-11-09T18:31:25.839Z,33.35
2022-11-09T18:33:54.398Z,37.55
2022-11-09T18:36:23.600Z,33.65
2022-11-09T18:38:52.259Z,32.50
2022-11-09T18:41:22.981Z,34.10
2022-11-09T18:44:01.045Z,31.45
2022-11-09T18:46:45.435Z,32.58
2022-11-09T18:49:20.852Z,32.53
2022-11-09T18:51:49.242Z,34.72
2022-11-09T18:54:20.842Z,33.50
2022-11-09T18:56:49.155Z,31.10
2022-11-09T18:59:18.930Z,31.70
2022-11-09T19:01:59.759Z,33.42
2022-11-09T19:04:43.342Z,43.58
2022-11-09T19:07:27.267Z,39.85
2022-11-09T19:10:01.665Z,36.22
2022-11-09T19:12:48.092Z,32.45
2022-11-09T19:15:26.894Z,57.03
2022-11-09T19:18:10.746Z,35.25
2022-11-09T19:20:48.385Z,34.92
2022-11-09T19:23:17.599Z,34.53
2022-11-09T19:25:45.893Z,34.58
2022-11-09T19:28:14.155Z,35.28
2022-11-09T19:30:47.612Z,30.08
2022-11-09T19:33:23.122Z,33.30
2022-11-09T19:36:23.214Z,34.55
2022-11-09T19:38:49.773Z,34.35
2022-11-09T19:41:18.105Z,31.33
2022-11-09T19:43:57.146Z,31.92
2022-11-09T19:46:31.679Z,34.35
2022-11-09T19:49:00.046Z,37.15
2022-11-09T19:51:29.414Z,37.60
2022-11-09T19:54:11.022Z,35.60
2022-11-09T19:56:39.299Z,36.25
2022-11-09T19:59:14.340Z,35.13
2022-11-09T20:01:44.041Z,34.63
2022-11-09T20:04:18.574Z,33.85
2022-11-09T20:06:49.628Z,33.40
2022-11-09T20:09:20.725Z,33.92
2022-11-09T20:12:10.139Z,33.35
2022-11-09T20:14:38.331Z,34.72
2022-11-09T20:17:07.974Z,32.78
2022-11-09T20:19:36.249Z,33.05
2022-11-09T20:22:07.609Z,33.33
2022-11-09T20:24:36.540Z,32.10
2022-11-09T20:27:05.056Z,32.28
2022-11-09T20:29:34.809Z,32.13
2022-11-09T20:32:03.184Z,30.90
2022-11-09T20:34:32.882Z,30.55
2022-11-09T20:37:01.172Z,30.77
2022-11-09T20:39:32.232Z,29.80
2022-11-09T20:42:00.689Z,29.13
2022-11-09T20:44:28.914Z,32.58
2022-11-09T20:46:57.203Z,30.73
2022-11-09T20:49:25.425Z,29.50
2022-11-09T20:51:55.509Z,28.63
2022-11-09T20:54:23.782Z,29.63
2022-11-09T20:56:54.839Z,29.38
2022-11-09T20:59:23.090Z,28.80
2022-11-09T21:01:51.369Z,28.13
2022-11-09T21:04:19.574Z,28.08
2022-11-09T21:06:48.126Z,28.25
2022-11-09T21:09:17.973Z,29.08
2022-11-09T21:12:03.651Z,28.67
2022-11-09T21:14:32.206Z,26.90
2022-11-09T21:17:03.028Z,28.60
2022-11-09T21:19:31.360Z,27.35
2022-11-09T21:21:59.693Z,28.77
2022-11-09T21:24:47.250Z,28.85
2022-11-09T21:27:38.742Z,28.48
2022-11-09T21:30:08.081Z,28.45
2022-11-09T21:32:36.319Z,31.27
2022-11-09T21:35:04.825Z,31.08
2022-11-09T21:37:33.100Z,31.02
2022-11-09T21:40:02.764Z,32.20
2022-11-09T21:42:31.121Z,30.85
2022-11-09T21:44:59.412Z,30.73
2022-11-09T21:47:27.682Z,31.77
2022-11-09T21:49:56.027Z,32.17
2022-11-09T21:52:24.255Z,32.13
2022-11-09T21:54:52.590Z,32.60
2022-11-09T21:57:22.208Z,31.08
2022-11-09T21:59:50.586Z,32.15
2022-11-09T22:02:18.933Z,30.83
2022-11-09T22:04:47.147Z,31.77
2022-11-09T22:07:15.576Z,31.25
2022-11-09T22:10:08.685Z,30.98
2022-11-09T22:12:50.519Z,29.48
2022-11-09T22:15:36.311Z,31.08
2022-11-09T22:18:05.984Z,30.70
2022-11-09T22:20:51.472Z,31.25
2022-11-09T22:23:22.845Z,31.17
2022-11-09T22:25:51.510Z,32.38
2022-11-09T22:28:21.220Z,30.35
2022-11-09T22:30:52.590Z,32.90
2022-11-09T22:33:26.903Z,32.72
2022-11-09T22:35:56.263Z,31.58
2022-11-09T22:38:24.559Z,34.42
2022-11-09T22:40:52.904Z,33.85
2022-11-09T22:43:23.053Z,32.63
2022-11-09T22:45:51.550Z,31.40
2022-11-09T22:48:19.888Z,32.92
2022-11-09T22:50:48.167Z,29.52
2022-11-09T22:53:16.494Z,32.55
2022-11-09T22:55:44.698Z,31.02
2022-11-09T22:58:13.102Z,32.28
2022-11-09T23:00:43.012Z,30.92
2022-11-09T23:03:11.350Z,31.75
2022-11-09T23:05:39.678Z,30.23
2022-11-09T23:08:08.201Z,31.23
2022-11-09T23:10:36.628Z,30.52
2022-11-09T23:13:05.592Z,30.60
2022-11-09T23:15:34.114Z,30.88
2022-11-09T23:18:21.275Z,29.60
2022-11-09T23:20:49.639Z,29.33
2022-11-09T23:23:17.978Z,27.42
2022-11-09T23:25:55.033Z,27.65
2022-11-09T23:28:23.471Z,27.10
2022-11-09T23:30:52.127Z,27.02
2022-11-09T23:33:22.091Z,27.95
2022-11-09T23:35:50.547Z,27.63
2022-11-09T23:38:18.750Z,27.30
2022-11-09T23:40:47.722Z,26.85
2022-11-09T23:43:17.101Z,26.50
2022-11-09T23:45:45.512Z,25.67
2022-11-09T23:48:18.492Z,23.52
2022-11-09T23:50:49.252Z,24.05
2022-11-09T23:53:17.806Z,22.95
2022-11-09T23:55:46.463Z,23.17
2022-11-09T23:58:14.725Z,24.02
